sensor_id;sensor_type;location;lat;lon;timestamp;temperature;humidity
14031;DHT22;7090;49.436;8.490;2022-12-18T00:00:55;-5.20;99.90
14031;DHT22;7090;49.436;8.490;2022-12-18T00:03:21;-5.20;99.90
14031;DHT22;7090;49.436;8.490;2022-12-18T00:05:50;-5.10;99.90
14031;DHT22;7090;49.436;8.490;2022-12-18T00:08:16;-5.30;99.90
14031;DHT22;7090;49.436;8.490;2022-12-18T00:10:43;-5.30;99.90
14031;DHT22;7090;49.436;8.490;2022-12-18T00:13:08;-5.20;99.90
14031;DHT22;7090;49.436;8.490;2022-12-18T00:15:35;-5.20;99.90
14031;DHT22;7090;49.436;8.490;2022-12-18T00:18:01;-5.20;99.90
14031;DHT22;7090;49.436;8.490;2022-12-18T00:20:26;-5.20;99.90
14031;DHT22;7090;49.436;8.490;2022-12-18T00:22:53;-5.20;99.90
14031;DHT22;7090;49.436;8.490;2022-12-18T00:25:18;-5.30;99.90
14031;DHT22;7090;49.436;8.490;2022-12-18T00:27:44;-5.30;99.90
14031;DHT22;7090;49.436;8.490;2022-12-18T00:30:10;-5.40;99.90
14031;DHT22;7090;49.436;8.490;2022-12-18T00:32:36;-5.40;99.90
14031;DHT22;7090;49.436;8.490;2022-12-18T00:35:01;-5.30;99.90
14031;DHT22;7090;49.436;8.490;2022-12-18T00:37:27;-5.40;99.90
14031;DHT22;7090;49.436;8.490;2022-12-18T00:39:52;-5.50;99.90
14031;DHT22;7090;49.436;8.490;2022-12-18T00:42:18;-5.60;99.90
14031;DHT22;7090;49.436;8.490;2022-12-18T00:45:02;-5.50;99.90
14031;DHT22;7090;49.436;8.490;2022-12-18T00:47:28;-5.30;99.90
14031;DHT22;7090;49.436;8.490;2022-12-18T00:49:54;-5.40;99.90
14031;DHT22;7090;49.436;8.490;2022-12-18T00:52:19;-5.50;99.90
14031;DHT22;7090;49.436;8.490;2022-12-18T00:54:48;-5.40;99.90
14031;DHT22;7090;49.436;8.490;2022-12-18T00:57:13;-5.60;99.90
14031;DHT22;7090;49.436;8.490;2022-12-18T00:59:39;-5.60;99.90
14031;DHT22;7090;49.436;8.490;2022-12-18T01:02:05;-5.70;99.90
14031;DHT22;7090;49.436;8.490;2022-12-18T01:04:33;-5.70;99.90
14031;DHT22;7090;49.436;8.490;2022-12-18T01:06:59;-5.70;99.90
14031;DHT22;7090;49.436;8.490;2022-12-18T01:09:25;-5.90;99.90
14031;DHT22;7090;49.436;8.490;2022-12-18T01:11:50;-5.90;99.90
14031;DHT22;7090;49.436;8.490;2022-12-18T01:14:16;-5.90;99.90
14031;DHT22;7090;49.436;8.490;2022-12-18T01:16:42;-6.00;99.90
14031;DHT22;7090;49.436;8.490;2022-12-18T01:19:07;-6.10;99.90
14031;DHT22;7090;49.436;8.490;2022-12-18T01:21:33;-6.00;99.90
14031;DHT22;7090;49.436;8.490;2022-12-18T01:23:59;-6.00;99.90
14031;DHT22;7090;49.436;8.490;2022-12-18T01:26:25;-5.90;99.90
14031;DHT22;7090;49.436;8.490;2022-12-18T01:28:51;-5.90;99.90
14031;DHT22;7090;49.436;8.490;2022-12-18T01:31:28;-6.00;99.90
14031;DHT22;7090;49.436;8.490;2022-12-18T01:33:54;-6.00;99.90
14031;DHT22;7090;49.436;8.490;2022-12-18T01:36:26;-5.80;99.90
14031;DHT22;7090;49.436;8.490;2022-12-18T01:38:52;-5.80;99.90
14031;DHT22;7090;49.436;8.490;2022-12-18T01:41:24;-5.70;99.90
14031;DHT22;7090;49.436;8.490;2022-12-18T01:43:57;-5.80;99.90
14031;DHT22;7090;49.436;8.490;2022-12-18T01:46:27;-5.90;99.90
14031;DHT22;7090;49.436;8.490;2022-12-18T01:48:57;-5.90;99.90
14031;DHT22;7090;49.436;8.490;2022-12-18T01:51:23;-5.90;99.90
14031;DHT22;7090;49.436;8.490;2022-12-18T01:53:49;-6.00;99.90
14031;DHT22;7090;49.436;8.490;2022-12-18T01:56:17;-6.00;99.90
14031;DHT22;7090;49.436;8.490;2022-12-18T02:01:24;-6.10;99.90
14031;DHT22;7090;49.436;8.490;2022-12-18T02:03:50;-6.00;99.90
14031;DHT22;7090;49.436;8.490;2022-12-18T02:09:09;-6.00;99.90
14031;DHT22;7090;49.436;8.490;2022-12-18T02:12:05;-5.90;99.90
14031;DHT22;7090;49.436;8.490;2022-12-18T02:14:55;-5.90;99.90
14031;DHT22;7090;49.436;8.490;2022-12-18T02:17:36;-5.90;99.90
14031;DHT22;7090;49.436;8.490;2022-12-18T02:20:21;-6.10;99.90
14031;DHT22;7090;49.436;8.490;2022-12-18T02:26:05;-6.20;99.90
14031;DHT22;7090;49.436;8.490;2022-12-18T02:28:42;-6.10;99.90
14031;DHT22;7090;49.436;8.490;2022-12-18T02:31:14;-6.20;99.90
14031;DHT22;7090;49.436;8.490;2022-12-18T02:33:43;-6.20;99.90
14031;DHT22;7090;49.436;8.490;2022-12-18T02:36:10;-6.30;99.90
14031;DHT22;7090;49.436;8.490;2022-12-18T02:38:38;-6.20;99.90
14031;DHT22;7090;49.436;8.490;2022-12-18T02:41:05;-6.10;99.90
14031;DHT22;7090;49.436;8.490;2022-12-18T02:43:31;-6.20;99.90
14031;DHT22;7090;49.436;8.490;2022-12-18T02:45:59;-6.20;99.90
14031;DHT22;7090;49.436;8.490;2022-12-18T02:48:29;-6.00;99.90
14031;DHT22;7090;49.436;8.490;2022-12-18T02:51:03;-6.00;99.90
14031;DHT22;7090;49.436;8.490;2022-12-18T02:53:38;-6.00;99.90
14031;DHT22;7090;49.436;8.490;2022-12-18T02:56:15;-5.80;99.90
14031;DHT22;7090;49.436;8.490;2022-12-18T02:59:05;-5.80;99.90
14031;DHT22;7090;49.436;8.490;2022-12-18T03:01:52;-6.10;99.90
14031;DHT22;7090;49.436;8.490;2022-12-18T03:04:58;-6.20;99.90
14031;DHT22;7090;49.436;8.490;2022-12-18T03:07:42;-6.10;99.90
14031;DHT22;7090;49.436;8.490;2022-12-18T03:10:15;-6.10;99.90
14031;DHT22;7090;49.436;8.490;2022-12-18T03:12:47;-6.10;99.90
14031;DHT22;7090;49.436;8.490;2022-12-18T03:15:21;-5.90;99.90
14031;DHT22;7090;49.436;8.490;2022-12-18T03:17:54;-5.80;99.90
14031;DHT22;7090;49.436;8.490;2022-12-18T03:20:23;-5.70;99.90
14031;DHT22;7090;49.436;8.490;2022-12-18T03:22:54;-5.80;99.90
14031;DHT22;7090;49.436;8.490;2022-12-18T03:25:24;-5.90;99.90
14031;DHT22;7090;49.436;8.490;2022-12-18T03:27:55;-5.80;99.90
14031;DHT22;7090;49.436;8.490;2022-12-18T03:30:23;-6.00;99.90
14031;DHT22;7090;49.436;8.490;2022-12-18T03:33:19;-6.10;99.90
14031;DHT22;7090;49.436;8.490;2022-12-18T03:35:45;-6.00;99.90
14031;DHT22;7090;49.436;8.490;2022-12-18T03:38:13;-5.90;99.90
14031;DHT22;7090;49.436;8.490;2022-12-18T03:43:51;-6.00;99.90
14031;DHT22;7090;49.436;8.490;2022-12-18T03:46:31;-5.90;99.90
14031;DHT22;7090;49.436;8.490;2022-12-18T03:49:10;-5.70;99.90
14031;DHT22;7090;49.436;8.490;2022-12-18T03:51:48;-5.60;99.90
14031;DHT22;7090;49.436;8.490;2022-12-18T03:54:16;-5.60;99.90
14031;DHT22;7090;49.436;8.490;2022-12-18T03:56:47;-5.50;99.90
14031;DHT22;7090;49.436;8.490;2022-12-18T03:59:15;-5.60;99.90
14031;DHT22;7090;49.436;8.490;2022-12-18T04:01:46;-5.60;99.90
14031;DHT22;7090;49.436;8.490;2022-12-18T04:04:13;-5.60;99.90
14031;DHT22;7090;49.436;8.490;2022-12-18T04:06:40;-5.70;99.90
14031;DHT22;7090;49.436;8.490;2022-12-18T04:09:07;-5.70;99.90
14031;DHT22;7090;49.436;8.490;2022-12-18T04:11:33;-5.70;99.90
14031;DHT22;7090;49.436;8.490;2022-12-18T04:13:59;-5.70;99.90
14031;DHT22;7090;49.436;8.490;2022-12-18T04:16:26;-5.60;99.90
14031;DHT22;7090;49.436;8.490;2022-12-18T04:18:51;-5.50;99.90
14031;DHT22;7090;49.436;8.490;2022-12-18T04:21:17;-5.60;99.90
14031;DHT22;7090;49.436;8.490;2022-12-18T04:23:42;-5.70;99.90
14031;DHT22;7090;49.436;8.490;2022-12-18T04:26:08;-5.70;99.90
14031;DHT22;7090;49.436;8.490;2022-12-18T04:28:34;-5.50;99.90
14031;DHT22;7090;49.436;8.490;2022-12-18T04:30:59;-5.30;99.90
14031;DHT22;7090;49.436;8.490;2022-12-18T04:33:25;-5.60;99.90
14031;DHT22;7090;49.436;8.490;2022-12-18T04:35:50;-5.60;99.90
14031;DHT22;7090;49.436;8.490;2022-12-18T04:38:16;-5.50;99.90
14031;DHT22;7090;49.436;8.490;2022-12-18T04:40:41;-5.40;99.90
14031;DHT22;7090;49.436;8.490;2022-12-18T04:43:07;-5.40;99.90
14031;DHT22;7090;49.436;8.490;2022-12-18T04:45:33;-5.30;99.90
14031;DHT22;7090;49.436;8.490;2022-12-18T04:48:00;-5.20;99.90
14031;DHT22;7090;49.436;8.490;2022-12-18T04:50:26;-5.10;99.90
14031;DHT22;7090;49.436;8.490;2022-12-18T04:52:52;-5.10;99.90
14031;DHT22;7090;49.436;8.490;2022-12-18T04:55:17;-5.00;99.90
14031;DHT22;7090;49.436;8.490;2022-12-18T04:57:43;-5.00;99.90
14031;DHT22;7090;49.436;8.490;2022-12-18T05:00:09;-5.20;99.90
14031;DHT22;7090;49.436;8.490;2022-12-18T05:02:35;-5.40;99.90
14031;DHT22;7090;49.436;8.490;2022-12-18T05:05:00;-5.40;99.90
14031;DHT22;7090;49.436;8.490;2022-12-18T05:07:26;-5.30;99.90
14031;DHT22;7090;49.436;8.490;2022-12-18T05:09:51;-5.20;99.90
14031;DHT22;7090;49.436;8.490;2022-12-18T05:12:17;-5.20;99.90
14031;DHT22;7090;49.436;8.490;2022-12-18T05:14:42;-5.20;99.90
14031;DHT22;7090;49.436;8.490;2022-12-18T05:17:08;-5.10;99.90
14031;DHT22;7090;49.436;8.490;2022-12-18T05:19:42;-5.00;99.90
14031;DHT22;7090;49.436;8.490;2022-12-18T05:22:09;-5.00;99.90
14031;DHT22;7090;49.436;8.490;2022-12-18T05:24:35;-5.10;99.90
14031;DHT22;7090;49.436;8.490;2022-12-18T05:27:01;-5.10;99.90
14031;DHT22;7090;49.436;8.490;2022-12-18T05:29:26;-5.10;99.90
14031;DHT22;7090;49.436;8.490;2022-12-18T05:31:52;-5.10;99.90
14031;DHT22;7090;49.436;8.490;2022-12-18T05:34:17;-5.10;99.90
14031;DHT22;7090;49.436;8.490;2022-12-18T05:36:43;-5.30;99.90
14031;DHT22;7090;49.436;8.490;2022-12-18T05:39:09;-5.20;99.90
14031;DHT22;7090;49.436;8.490;2022-12-18T05:41:34;-5.10;99.90
14031;DHT22;7090;49.436;8.490;2022-12-18T05:44:00;-5.10;99.90
14031;DHT22;7090;49.436;8.490;2022-12-18T05:46:26;-5.00;99.90
14031;DHT22;7090;49.436;8.490;2022-12-18T05:48:51;-4.90;99.90
14031;DHT22;7090;49.436;8.490;2022-12-18T05:51:19;-5.30;99.90
14031;DHT22;7090;49.436;8.490;2022-12-18T05:53:46;-5.70;99.90
14031;DHT22;7090;49.436;8.490;2022-12-18T05:56:18;-5.90;99.90
14031;DHT22;7090;49.436;8.490;2022-12-18T05:58:45;-5.70;99.90
14031;DHT22;7090;49.436;8.490;2022-12-18T06:01:16;-5.70;99.90
14031;DHT22;7090;49.436;8.490;2022-12-18T06:03:42;-5.60;99.90
14031;DHT22;7090;49.436;8.490;2022-12-18T06:06:17;-5.50;99.90
14031;DHT22;7090;49.436;8.490;2022-12-18T06:08:43;-5.50;99.90
14031;DHT22;7090;49.436;8.490;2022-12-18T06:11:09;-5.60;99.90
14031;DHT22;7090;49.436;8.490;2022-12-18T06:13:35;-5.60;99.90
14031;DHT22;7090;49.436;8.490;2022-12-18T06:16:05;-5.60;99.90
14031;DHT22;7090;49.436;8.490;2022-12-18T06:18:31;-5.80;99.90
14031;DHT22;7090;49.436;8.490;2022-12-18T06:20:58;-5.90;99.90
14031;DHT22;7090;49.436;8.490;2022-12-18T06:23:24;-5.90;99.90
14031;DHT22;7090;49.436;8.490;2022-12-18T06:25:49;-5.90;99.90
14031;DHT22;7090;49.436;8.490;2022-12-18T06:28:15;-5.90;99.90
14031;DHT22;7090;49.436;8.490;2022-12-18T06:30:43;-5.90;99.90
14031;DHT22;7090;49.436;8.490;2022-12-18T06:33:09;-5.80;99.90
14031;DHT22;7090;49.436;8.490;2022-12-18T06:35:35;-5.80;99.90
14031;DHT22;7090;49.436;8.490;2022-12-18T06:38:01;-5.80;99.90
14031;DHT22;7090;49.436;8.490;2022-12-18T06:40:27;-5.70;99.90
14031;DHT22;7090;49.436;8.490;2022-12-18T06:42:52;-5.90;99.90
14031;DHT22;7090;49.436;8.490;2022-12-18T06:45:18;-6.10;99.90
14031;DHT22;7090;49.436;8.490;2022-12-18T06:47:43;-6.10;99.90
14031;DHT22;7090;49.436;8.490;2022-12-18T06:53:18;-6.10;99.90
14031;DHT22;7090;49.436;8.490;2022-12-18T06:55:44;-6.10;99.90
14031;DHT22;7090;49.436;8.490;2022-12-18T06:58:10;-6.40;99.90
14031;DHT22;7090;49.436;8.490;2022-12-18T07:00:35;-6.30;99.90
14031;DHT22;7090;49.436;8.490;2022-12-18T07:06:18;-6.50;99.90
14031;DHT22;7090;49.436;8.490;2022-12-18T07:08:45;-6.50;99.90
14031;DHT22;7090;49.436;8.490;2022-12-18T07:11:11;-6.50;99.90
14031;DHT22;7090;49.436;8.490;2022-12-18T07:13:37;-6.50;99.90
14031;DHT22;7090;49.436;8.490;2022-12-18T07:18:56;-6.60;99.90
14031;DHT22;7090;49.436;8.490;2022-12-18T07:21:22;-6.70;99.90
14031;DHT22;7090;49.436;8.490;2022-12-18T07:23:49;-6.70;99.90
14031;DHT22;7090;49.436;8.490;2022-12-18T07:26:17;-6.60;99.90
14031;DHT22;7090;49.436;8.490;2022-12-18T07:32:05;-6.70;99.90
14031;DHT22;7090;49.436;8.490;2022-12-18T07:34:30;-6.60;99.90
14031;DHT22;7090;49.436;8.490;2022-12-18T07:36:56;-6.90;99.90
14031;DHT22;7090;49.436;8.490;2022-12-18T07:39:21;-6.60;99.90
14031;DHT22;7090;49.436;8.490;2022-12-18T07:41:47;-6.90;99.90
14031;DHT22;7090;49.436;8.490;2022-12-18T07:44:32;-6.80;99.90
14031;DHT22;7090;49.436;8.490;2022-12-18T07:47:35;-6.70;99.90
14031;DHT22;7090;49.436;8.490;2022-12-18T07:50:02;-6.70;99.90
14031;DHT22;7090;49.436;8.490;2022-12-18T07:52:28;-6.70;99.90
14031;DHT22;7090;49.436;8.490;2022-12-18T07:54:53;-6.60;99.90
14031;DHT22;7090;49.436;8.490;2022-12-18T07:57:19;-6.50;99.90
14031;DHT22;7090;49.436;8.490;2022-12-18T07:59:47;-6.60;99.90
14031;DHT22;7090;49.436;8.490;2022-12-18T08:02:13;-6.60;99.90
14031;DHT22;7090;49.436;8.490;2022-12-18T08:04:38;-6.50;99.90
14031;DHT22;7090;49.436;8.490;2022-12-18T08:07:04;-6.60;99.90
14031;DHT22;7090;49.436;8.490;2022-12-18T08:09:30;-6.60;99.90
14031;DHT22;7090;49.436;8.490;2022-12-18T08:11:55;-6.40;99.90
14031;DHT22;7090;49.436;8.490;2022-12-18T08:14:21;-6.20;99.90
14031;DHT22;7090;49.436;8.490;2022-12-18T08:16:46;-6.10;99.90
14031;DHT22;7090;49.436;8.490;2022-12-18T08:19:12;-6.10;99.90
14031;DHT22;7090;49.436;8.490;2022-12-18T08:21:41;-6.00;99.90
14031;DHT22;7090;49.436;8.490;2022-12-18T08:24:06;-6.20;99.90
14031;DHT22;7090;49.436;8.490;2022-12-18T08:26:32;-6.10;99.90
14031;DHT22;7090;49.436;8.490;2022-12-18T08:28:59;-6.00;99.90
14031;DHT22;7090;49.436;8.490;2022-12-18T08:31:25;-5.90;99.90
14031;DHT22;7090;49.436;8.490;2022-12-18T08:33:53;-5.70;99.90
14031;DHT22;7090;49.436;8.490;2022-12-18T08:36:19;-5.60;99.90
14031;DHT22;7090;49.436;8.490;2022-12-18T08:38:45;-5.80;99.90
14031;DHT22;7090;49.436;8.490;2022-12-18T08:41:12;-5.80;99.90
14031;DHT22;7090;49.436;8.490;2022-12-18T08:43:38;-5.80;99.90
14031;DHT22;7090;49.436;8.490;2022-12-18T08:46:24;-5.60;99.90
14031;DHT22;7090;49.436;8.490;2022-12-18T08:48:51;-5.50;99.90
14031;DHT22;7090;49.436;8.490;2022-12-18T08:51:17;-5.10;99.90
14031;DHT22;7090;49.436;8.490;2022-12-18T08:53:44;-4.80;99.90
14031;DHT22;7090;49.436;8.490;2022-12-18T08:56:10;-4.90;99.90
14031;DHT22;7090;49.436;8.490;2022-12-18T08:58:35;-4.60;99.90
14031;DHT22;7090;49.436;8.490;2022-12-18T09:01:03;-4.20;99.90
14031;DHT22;7090;49.436;8.490;2022-12-18T09:03:28;-4.40;99.90
14031;DHT22;7090;49.436;8.490;2022-12-18T09:05:54;-4.30;99.90
14031;DHT22;7090;49.436;8.490;2022-12-18T09:08:20;-4.10;99.90
14031;DHT22;7090;49.436;8.490;2022-12-18T09:10:47;-4.10;99.90
14031;DHT22;7090;49.436;8.490;2022-12-18T09:13:14;-3.70;99.90
14031;DHT22;7090;49.436;8.490;2022-12-18T09:15:46;-3.30;99.90
14031;DHT22;7090;49.436;8.490;2022-12-18T09:18:13;-3.10;99.90
14031;DHT22;7090;49.436;8.490;2022-12-18T09:20:39;-2.90;99.90
14031;DHT22;7090;49.436;8.490;2022-12-18T09:23:05;-2.80;99.90
14031;DHT22;7090;49.436;8.490;2022-12-18T09:25:32;-2.80;99.90
14031;DHT22;7090;49.436;8.490;2022-12-18T09:31:23;-2.20;99.90
14031;DHT22;7090;49.436;8.490;2022-12-18T09:33:49;-1.80;99.90
14031;DHT22;7090;49.436;8.490;2022-12-18T09:36:17;-2.00;99.90
14031;DHT22;7090;49.436;8.490;2022-12-18T09:38:58;-1.90;99.90
14031;DHT22;7090;49.436;8.490;2022-12-18T09:44:24;-1.40;99.90
14031;DHT22;7090;49.436;8.490;2022-12-18T09:47:12;-1.20;99.90
14031;DHT22;7090;49.436;8.490;2022-12-18T09:49:49;-1.50;1.00
14031;DHT22;7090;49.436;8.490;2022-12-18T09:52:32;-1.10;1.00
14031;DHT22;7090;49.436;8.490;2022-12-18T09:55:11;-1.10;99.90
14031;DHT22;7090;49.436;8.490;2022-12-18T09:57:45;-0.90;99.90
14031;DHT22;7090;49.436;8.490;2022-12-18T10:02:43;-0.30;31.50
14031;DHT22;7090;49.436;8.490;2022-12-18T10:05:34;-0.70;25.90
14031;DHT22;7090;49.436;8.490;2022-12-18T10:08:07;-0.40;99.90
14031;DHT22;7090;49.436;8.490;2022-12-18T10:10:46;-0.10;53.90
14031;DHT22;7090;49.436;8.490;2022-12-18T10:16:19;-0.20;1.00
14031;DHT22;7090;49.436;8.490;2022-12-18T10:21:18;0.20;1.00
14031;DHT22;7090;49.436;8.490;2022-12-18T10:26:17;0.50;99.90
14031;DHT22;7090;49.436;8.490;2022-12-18T10:28:43;0.80;1.00
14031;DHT22;7090;49.436;8.490;2022-12-18T10:31:22;1.00;1.00
14031;DHT22;7090;49.436;8.490;2022-12-18T10:33:48;1.20;1.00
14031;DHT22;7090;49.436;8.490;2022-12-18T10:36:14;1.30;1.00
14031;DHT22;7090;49.436;8.490;2022-12-18T10:38:40;1.60;1.00
14031;DHT22;7090;49.436;8.490;2022-12-18T10:41:40;1.60;1.00
14031;DHT22;7090;49.436;8.490;2022-12-18T10:46:44;0.30;1.00
14031;DHT22;7090;49.436;8.490;2022-12-18T10:49:28;-0.40;1.00
14031;DHT22;7090;49.436;8.490;2022-12-18T10:52:23;-1.10;99.90
14031;DHT22;7090;49.436;8.490;2022-12-18T10:54:55;-1.60;99.90
14031;DHT22;7090;49.436;8.490;2022-12-18T10:57:36;-1.90;1.00
14031;DHT22;7090;49.436;8.490;2022-12-18T11:00:25;-1.80;1.00
14031;DHT22;7090;49.436;8.490;2022-12-18T11:02:53;-2.00;1.00
14031;DHT22;7090;49.436;8.490;2022-12-18T11:07:52;-1.70;1.00
14031;DHT22;7090;49.436;8.490;2022-12-18T11:10:28;-1.50;1.00
14031;DHT22;7090;49.436;8.490;2022-12-18T11:12:54;-1.80;1.00
14031;DHT22;7090;49.436;8.490;2022-12-18T11:15:23;-1.40;1.00
14031;DHT22;7090;49.436;8.490;2022-12-18T11:17:50;-1.20;1.00
14031;DHT22;7090;49.436;8.490;2022-12-18T11:20:34;-1.30;1.00
14031;DHT22;7090;49.436;8.490;2022-12-18T11:26:06;-1.00;99.90
14031;DHT22;7090;49.436;8.490;2022-12-18T11:28:41;-0.70;99.90
14031;DHT22;7090;49.436;8.490;2022-12-18T11:31:27;-0.90;99.90
14031;DHT22;7090;49.436;8.490;2022-12-18T11:36:44;-1.00;99.90
14031;DHT22;7090;49.436;8.490;2022-12-18T11:39:42;-1.00;99.90
14031;DHT22;7090;49.436;8.490;2022-12-18T11:48:03;-1.00;99.90
14031;DHT22;7090;49.436;8.490;2022-12-18T11:50:46;-0.80;99.90
14031;DHT22;7090;49.436;8.490;2022-12-18T11:53:13;-0.90;99.90
14031;DHT22;7090;49.436;8.490;2022-12-18T11:56:04;-1.00;99.90
14031;DHT22;7090;49.436;8.490;2022-12-18T12:01:42;-1.10;1.00
14031;DHT22;7090;49.436;8.490;2022-12-18T12:07:20;-0.80;99.90
14031;DHT22;7090;49.436;8.490;2022-12-18T12:21:39;-1.50;99.90
14031;DHT22;7090;49.436;8.490;2022-12-18T12:24:18;-1.30;1.00
14031;DHT22;7090;49.436;8.490;2022-12-18T12:40:19;-1.10;99.90
14031;DHT22;7090;49.436;8.490;2022-12-18T12:42:52;-1.10;99.90
14031;DHT22;7090;49.436;8.490;2022-12-18T12:48:31;-1.10;99.90
14031;DHT22;7090;49.436;8.490;2022-12-18T12:51:01;-1.10;99.90
14031;DHT22;7090;49.436;8.490;2022-12-18T12:53:32;-1.00;99.90
14031;DHT22;7090;49.436;8.490;2022-12-18T12:55:59;-1.10;99.90
14031;DHT22;7090;49.436;8.490;2022-12-18T12:58:41;-1.20;99.90
14031;DHT22;7090;49.436;8.490;2022-12-18T13:01:34;-1.10;99.90
14031;DHT22;7090;49.436;8.490;2022-12-18T13:10:26;-1.10;99.90
14031;DHT22;7090;49.436;8.490;2022-12-18T13:15:46;-1.00;99.90
14031;DHT22;7090;49.436;8.490;2022-12-18T13:18:23;-1.00;99.90
14031;DHT22;7090;49.436;8.490;2022-12-18T13:21:21;-1.00;99.90
14031;DHT22;7090;49.436;8.490;2022-12-18T13:23:49;-1.00;99.90
14031;DHT22;7090;49.436;8.490;2022-12-18T13:34:23;-0.80;99.90
14031;DHT22;7090;49.436;8.490;2022-12-18T13:36:50;-0.90;99.90
14031;DHT22;7090;49.436;8.490;2022-12-18T13:41:48;-0.90;99.90
14031;DHT22;7090;49.436;8.490;2022-12-18T13:46:52;-1.00;99.90
14031;DHT22;7090;49.436;8.490;2022-12-18T13:51:49;-0.90;99.90
14031;DHT22;7090;49.436;8.490;2022-12-18T13:54:37;-0.90;99.90
14031;DHT22;7090;49.436;8.490;2022-12-18T13:57:04;-1.00;99.90
14031;DHT22;7090;49.436;8.490;2022-12-18T13:59:36;-1.00;1.00
14031;DHT22;7090;49.436;8.490;2022-12-18T14:02:14;-1.10;1.00
14031;DHT22;7090;49.436;8.490;2022-12-18T14:04:40;-1.10;1.00
14031;DHT22;7090;49.436;8.490;2022-12-18T14:07:10;-1.10;1.00
14031;DHT22;7090;49.436;8.490;2022-12-18T14:09:42;-1.10;1.00
14031;DHT22;7090;49.436;8.490;2022-12-18T14:12:17;-1.10;1.00
14031;DHT22;7090;49.436;8.490;2022-12-18T14:15:02;-1.10;1.00
14031;DHT22;7090;49.436;8.490;2022-12-18T14:17:28;-1.10;1.00
14031;DHT22;7090;49.436;8.490;2022-12-18T14:19:54;-1.10;1.00
14031;DHT22;7090;49.436;8.490;2022-12-18T14:22:29;-1.10;1.00
14031;DHT22;7090;49.436;8.490;2022-12-18T14:25:26;-1.10;1.00
14031;DHT22;7090;49.436;8.490;2022-12-18T14:30:36;-1.10;1.00
14031;DHT22;7090;49.436;8.490;2022-12-18T14:33:13;-1.10;1.00
14031;DHT22;7090;49.436;8.490;2022-12-18T14:36:02;-1.10;1.00
14031;DHT22;7090;49.436;8.490;2022-12-18T14:38:39;-1.10;1.00
14031;DHT22;7090;49.436;8.490;2022-12-18T14:43:36;-1.10;1.00
14031;DHT22;7090;49.436;8.490;2022-12-18T14:46:04;-1.10;1.00
14031;DHT22;7090;49.436;8.490;2022-12-18T14:48:49;-1.10;1.00
14031;DHT22;7090;49.436;8.490;2022-12-18T14:51:17;-1.10;1.00
14031;DHT22;7090;49.436;8.490;2022-12-18T14:53:54;-1.10;1.00
14031;DHT22;7090;49.436;8.490;2022-12-18T14:56:35;-1.10;1.00
14031;DHT22;7090;49.436;8.490;2022-12-18T14:59:21;-1.20;1.00
14031;DHT22;7090;49.436;8.490;2022-12-18T15:04:31;-1.20;1.00
14031;DHT22;7090;49.436;8.490;2022-12-18T15:07:19;-1.20;1.00
14031;DHT22;7090;49.436;8.490;2022-12-18T15:10:03;-1.20;1.00
14031;DHT22;7090;49.436;8.490;2022-12-18T15:12:47;-1.20;1.00
14031;DHT22;7090;49.436;8.490;2022-12-18T15:23:28;-1.30;1.00
14031;DHT22;7090;49.436;8.490;2022-12-18T15:28:33;-1.30;1.00
14031;DHT22;7090;49.436;8.490;2022-12-18T15:31:04;-1.40;1.00
14031;DHT22;7090;49.436;8.490;2022-12-18T15:33:33;-1.50;1.00
14031;DHT22;7090;49.436;8.490;2022-12-18T15:36:04;-1.60;1.00
14031;DHT22;7090;49.436;8.490;2022-12-18T15:38:33;-1.60;1.00
14031;DHT22;7090;49.436;8.490;2022-12-18T15:41:00;-1.60;99.90
14031;DHT22;7090;49.436;8.490;2022-12-18T15:43:29;-1.50;99.90
14031;DHT22;7090;49.436;8.490;2022-12-18T15:46:03;-1.50;99.90
14031;DHT22;7090;49.436;8.490;2022-12-18T15:48:39;-1.50;99.90
14031;DHT22;7090;49.436;8.490;2022-12-18T15:51:17;-1.60;99.90
14031;DHT22;7090;49.436;8.490;2022-12-18T15:53:43;-1.70;99.90
14031;DHT22;7090;49.436;8.490;2022-12-18T15:56:12;-1.70;99.90
14031;DHT22;7090;49.436;8.490;2022-12-18T15:58:57;-1.70;99.90
14031;DHT22;7090;49.436;8.490;2022-12-18T16:01:25;-1.60;99.90
14031;DHT22;7090;49.436;8.490;2022-12-18T16:03:51;-1.50;99.90
14031;DHT22;7090;49.436;8.490;2022-12-18T16:06:17;-1.60;99.90
14031;DHT22;7090;49.436;8.490;2022-12-18T16:08:42;-1.60;99.90
14031;DHT22;7090;49.436;8.490;2022-12-18T16:11:28;-1.50;99.90
14031;DHT22;7090;49.436;8.490;2022-12-18T16:14:17;-1.50;99.90
14031;DHT22;7090;49.436;8.490;2022-12-18T16:16:50;-1.40;99.90
14031;DHT22;7090;49.436;8.490;2022-12-18T16:19:17;-1.40;99.90
14031;DHT22;7090;49.436;8.490;2022-12-18T16:21:43;-1.40;99.90
14031;DHT22;7090;49.436;8.490;2022-12-18T16:24:23;-1.30;99.90
14031;DHT22;7090;49.436;8.490;2022-12-18T16:26:50;-1.40;99.90
14031;DHT22;7090;49.436;8.490;2022-12-18T16:29:23;-1.30;99.90
14031;DHT22;7090;49.436;8.490;2022-12-18T16:31:59;-1.30;99.90
14031;DHT22;7090;49.436;8.490;2022-12-18T16:34:28;-1.30;99.90
14031;DHT22;7090;49.436;8.490;2022-12-18T16:39:21;-1.40;99.90
14031;DHT22;7090;49.436;8.490;2022-12-18T16:41:47;-1.50;99.90
14031;DHT22;7090;49.436;8.490;2022-12-18T16:44:13;-1.50;99.90
14031;DHT22;7090;49.436;8.490;2022-12-18T16:46:39;-1.50;99.90
14031;DHT22;7090;49.436;8.490;2022-12-18T16:49:08;-1.40;99.90
14031;DHT22;7090;49.436;8.490;2022-12-18T16:51:34;-1.30;99.90
14031;DHT22;7090;49.436;8.490;2022-12-18T16:54:00;-1.20;99.90
14031;DHT22;7090;49.436;8.490;2022-12-18T16:56:26;-1.20;99.90
14031;DHT22;7090;49.436;8.490;2022-12-18T16:58:52;-1.10;99.90
14031;DHT22;7090;49.436;8.490;2022-12-18T17:01:19;-1.10;99.90
14031;DHT22;7090;49.436;8.490;2022-12-18T17:03:51;-1.10;99.90
14031;DHT22;7090;49.436;8.490;2022-12-18T17:06:18;-1.10;99.90
14031;DHT22;7090;49.436;8.490;2022-12-18T17:08:43;-1.10;99.90
14031;DHT22;7090;49.436;8.490;2022-12-18T17:11:09;-1.20;99.90
14031;DHT22;7090;49.436;8.490;2022-12-18T17:13:35;-1.10;99.90
14031;DHT22;7090;49.436;8.490;2022-12-18T17:16:04;-1.00;99.90
14031;DHT22;7090;49.436;8.490;2022-12-18T17:18:31;-1.00;99.90
14031;DHT22;7090;49.436;8.490;2022-12-18T17:21:02;-1.10;99.90
14031;DHT22;7090;49.436;8.490;2022-12-18T17:23:29;-1.10;99.90
14031;DHT22;7090;49.436;8.490;2022-12-18T17:25:56;-1.00;99.90
14031;DHT22;7090;49.436;8.490;2022-12-18T17:28:25;-1.20;35.80
14031;DHT22;7090;49.436;8.490;2022-12-18T17:30:52;-1.20;74.00
14031;DHT22;7090;49.436;8.490;2022-12-18T17:33:18;-1.30;99.90
14031;DHT22;7090;49.436;8.490;2022-12-18T17:35:44;-1.30;99.90
14031;DHT22;7090;49.436;8.490;2022-12-18T17:38:09;-1.40;99.90
14031;DHT22;7090;49.436;8.490;2022-12-18T17:40:35;-1.30;99.90
14031;DHT22;7090;49.436;8.490;2022-12-18T17:43:01;-1.40;99.90
14031;DHT22;7090;49.436;8.490;2022-12-18T17:45:27;-1.30;99.90
14031;DHT22;7090;49.436;8.490;2022-12-18T17:47:52;-1.20;99.90
14031;DHT22;7090;49.436;8.490;2022-12-18T17:50:18;-1.20;99.90
14031;DHT22;7090;49.436;8.490;2022-12-18T17:52:44;-1.20;99.90
14031;DHT22;7090;49.436;8.490;2022-12-18T17:55:10;-1.50;10.00
14031;DHT22;7090;49.436;8.490;2022-12-18T17:57:35;-1.60;99.90
14031;DHT22;7090;49.436;8.490;2022-12-18T18:00:03;-1.60;99.90
14031;DHT22;7090;49.436;8.490;2022-12-18T18:02:29;-1.50;99.90
14031;DHT22;7090;49.436;8.490;2022-12-18T18:04:54;-1.50;99.90
14031;DHT22;7090;49.436;8.490;2022-12-18T18:07:20;-1.40;99.90
14031;DHT22;7090;49.436;8.490;2022-12-18T18:09:45;-1.30;99.90
14031;DHT22;7090;49.436;8.490;2022-12-18T18:12:11;-1.30;99.90
14031;DHT22;7090;49.436;8.490;2022-12-18T18:14:55;-1.50;1.80
14031;DHT22;7090;49.436;8.490;2022-12-18T18:17:21;-1.50;71.90
14031;DHT22;7090;49.436;8.490;2022-12-18T18:19:46;-1.40;99.90
14031;DHT22;7090;49.436;8.490;2022-12-18T18:22:12;-1.40;99.90
14031;DHT22;7090;49.436;8.490;2022-12-18T18:24:38;-1.40;99.90
14031;DHT22;7090;49.436;8.490;2022-12-18T18:27:03;-1.30;99.90